sensor_id;sensor_type;location;lat;lon;timestamp;temperature;humidity
11597;DHT22;5854;48.072;16.286;2022-07-21T00:00:26;26.00;36.70
11597;DHT22;5854;48.072;16.286;2022-07-21T00:02:55;26.10;36.50
11597;DHT22;5854;48.072;16.286;2022-07-21T00:05:23;26.00;36.50
11597;DHT22;5854;48.072;16.286;2022-07-21T00:07:51;25.70;36.10
11597;DHT22;5854;48.072;16.286;2022-07-21T00:10:21;25.70;36.30
11597;DHT22;5854;48.072;16.286;2022-07-21T00:12:49;25.70;37.10
11597;DHT22;5854;48.072;16.286;2022-07-21T00:15:19;25.60;36.00
11597;DHT22;5854;48.072;16.286;2022-07-21T00:17:48;25.80;36.70
11597;DHT22;5854;48.072;16.286;2022-07-21T00:20:17;26.00;36.40
11597;DHT22;5854;48.072;16.286;2022-07-21T00:22:45;25.80;36.70
11597;DHT22;5854;48.072;16.286;2022-07-21T00:25:14;25.80;35.50
11597;DHT22;5854;48.072;16.286;2022-07-21T00:27:41;25.70;36.70
11597;DHT22;5854;48.072;16.286;2022-07-21T00:30:10;25.30;37.20
11597;DHT22;5854;48.072;16.286;2022-07-21T00:32:39;25.00;37.80
11597;DHT22;5854;48.072;16.286;2022-07-21T00:35:10;25.10;37.60
11597;DHT22;5854;48.072;16.286;2022-07-21T00:37:39;25.20;37.90
11597;DHT22;5854;48.072;16.286;2022-07-21T00:40:09;25.10;36.90
11597;DHT22;5854;48.072;16.286;2022-07-21T00:42:39;25.10;37.90
11597;DHT22;5854;48.072;16.286;2022-07-21T00:45:07;25.40;36.60
11597;DHT22;5854;48.072;16.286;2022-07-21T00:47:36;25.40;36.70
11597;DHT22;5854;48.072;16.286;2022-07-21T00:50:06;25.40;37.40
11597;DHT22;5854;48.072;16.286;2022-07-21T00:52:38;25.40;37.20
11597;DHT22;5854;48.072;16.286;2022-07-21T00:55:07;25.20;37.50
11597;DHT22;5854;48.072;16.286;2022-07-21T00:57:36;25.10;37.90
11597;DHT22;5854;48.072;16.286;2022-07-21T01:00:05;25.20;37.80
11597;DHT22;5854;48.072;16.286;2022-07-21T01:02:35;25.20;37.60
11597;DHT22;5854;48.072;16.286;2022-07-21T01:05:02;25.00;37.80
11597;DHT22;5854;48.072;16.286;2022-07-21T01:07:31;25.00;38.00
11597;DHT22;5854;48.072;16.286;2022-07-21T01:09:59;25.00;37.80
11597;DHT22;5854;48.072;16.286;2022-07-21T01:12:26;25.10;38.50
11597;DHT22;5854;48.072;16.286;2022-07-21T01:14:54;24.90;37.90
11597;DHT22;5854;48.072;16.286;2022-07-21T01:17:21;24.80;38.70
11597;DHT22;5854;48.072;16.286;2022-07-21T01:19:49;24.70;38.20
11597;DHT22;5854;48.072;16.286;2022-07-21T01:22:17;24.50;38.70
11597;DHT22;5854;48.072;16.286;2022-07-21T01:24:44;24.50;38.70
11597;DHT22;5854;48.072;16.286;2022-07-21T01:27:12;24.30;39.50
11597;DHT22;5854;48.072;16.286;2022-07-21T01:29:39;24.20;39.90
11597;DHT22;5854;48.072;16.286;2022-07-21T01:32:06;24.40;39.60
11597;DHT22;5854;48.072;16.286;2022-07-21T01:34:33;24.30;39.40
11597;DHT22;5854;48.072;16.286;2022-07-21T01:37:00;24.10;39.00
11597;DHT22;5854;48.072;16.286;2022-07-21T01:39:29;24.30;39.30
11597;DHT22;5854;48.072;16.286;2022-07-21T01:42:13;24.80;38.30
11597;DHT22;5854;48.072;16.286;2022-07-21T01:44:40;24.70;38.80
11597;DHT22;5854;48.072;16.286;2022-07-21T01:47:07;24.60;38.60
11597;DHT22;5854;48.072;16.286;2022-07-21T01:49:35;24.50;38.60
11597;DHT22;5854;48.072;16.286;2022-07-21T01:52:02;24.50;39.00
11597;DHT22;5854;48.072;16.286;2022-07-21T01:54:31;24.70;38.50
11597;DHT22;5854;48.072;16.286;2022-07-21T01:56:58;24.50;38.70
11597;DHT22;5854;48.072;16.286;2022-07-21T01:59:25;24.70;37.70
11597;DHT22;5854;48.072;16.286;2022-07-21T02:01:52;24.60;38.30
11597;DHT22;5854;48.072;16.286;2022-07-21T02:04:20;24.50;38.20
11597;DHT22;5854;48.072;16.286;2022-07-21T02:06:47;24.50;38.80
11597;DHT22;5854;48.072;16.286;2022-07-21T02:09:14;24.10;38.60
11597;DHT22;5854;48.072;16.286;2022-07-21T02:11:42;24.40;38.90
11597;DHT22;5854;48.072;16.286;2022-07-21T02:14:10;24.20;38.90
11597;DHT22;5854;48.072;16.286;2022-07-21T02:16:37;24.30;38.70
11597;DHT22;5854;48.072;16.286;2022-07-21T02:19:04;24.20;38.80
11597;DHT22;5854;48.072;16.286;2022-07-21T02:21:31;23.80;39.30
11597;DHT22;5854;48.072;16.286;2022-07-21T02:23:58;23.50;40.00
11597;DHT22;5854;48.072;16.286;2022-07-21T02:26:25;23.40;39.30
11597;DHT22;5854;48.072;16.286;2022-07-21T02:28:54;23.30;40.40
11597;DHT22;5854;48.072;16.286;2022-07-21T02:31:21;23.50;39.70
11597;DHT22;5854;48.072;16.286;2022-07-21T02:33:48;23.80;40.00
11597;DHT22;5854;48.072;16.286;2022-07-21T02:36:15;23.90;39.30
11597;DHT22;5854;48.072;16.286;2022-07-21T02:38:43;23.70;39.30
11597;DHT22;5854;48.072;16.286;2022-07-21T02:41:10;23.40;40.40
11597;DHT22;5854;48.072;16.286;2022-07-21T02:43:37;23.40;39.80
11597;DHT22;5854;48.072;16.286;2022-07-21T02:46:06;23.50;40.40
11597;DHT22;5854;48.072;16.286;2022-07-21T02:48:33;23.90;39.80
11597;DHT22;5854;48.072;16.286;2022-07-21T02:51:00;24.10;38.80
11597;DHT22;5854;48.072;16.286;2022-07-21T02:53:27;23.80;39.60
11597;DHT22;5854;48.072;16.286;2022-07-21T02:55:55;23.90;39.40
11597;DHT22;5854;48.072;16.286;2022-07-21T02:58:24;24.10;38.60
11597;DHT22;5854;48.072;16.286;2022-07-21T03:00:53;24.10;39.00
11597;DHT22;5854;48.072;16.286;2022-07-21T03:03:24;24.20;38.90
11597;DHT22;5854;48.072;16.286;2022-07-21T03:05:53;24.00;38.40
11597;DHT22;5854;48.072;16.286;2022-07-21T03:08:21;23.90;39.20
11597;DHT22;5854;48.072;16.286;2022-07-21T03:10:49;23.60;39.70
11597;DHT22;5854;48.072;16.286;2022-07-21T03:13:16;23.80;39.40
11597;DHT22;5854;48.072;16.286;2022-07-21T03:15:44;23.90;39.50
11597;DHT22;5854;48.072;16.286;2022-07-21T03:18:11;24.10;39.20
11597;DHT22;5854;48.072;16.286;2022-07-21T03:20:41;24.00;39.20
11597;DHT22;5854;48.072;16.286;2022-07-21T03:23:09;23.80;39.00
11597;DHT22;5854;48.072;16.286;2022-07-21T03:25:37;23.70;39.70
11597;DHT22;5854;48.072;16.286;2022-07-21T03:28:04;23.60;39.60
11597;DHT22;5854;48.072;16.286;2022-07-21T03:30:32;23.50;39.90
11597;DHT22;5854;48.072;16.286;2022-07-21T03:32:59;23.20;40.30
11597;DHT22;5854;48.072;16.286;2022-07-21T03:35:26;23.20;40.40
11597;DHT22;5854;48.072;16.286;2022-07-21T03:37:57;23.30;40.50
11597;DHT22;5854;48.072;16.286;2022-07-21T03:40:27;23.20;40.40
11597;DHT22;5854;48.072;16.286;2022-07-21T03:42:56;23.50;40.20
11597;DHT22;5854;48.072;16.286;2022-07-21T03:45:25;23.50;39.90
11597;DHT22;5854;48.072;16.286;2022-07-21T03:47:56;23.70;39.70
11597;DHT22;5854;48.072;16.286;2022-07-21T03:50:24;23.90;39.40
11597;DHT22;5854;48.072;16.286;2022-07-21T03:52:51;23.60;40.20
11597;DHT22;5854;48.072;16.286;2022-07-21T03:55:20;23.50;40.10
11597;DHT22;5854;48.072;16.286;2022-07-21T03:57:50;23.70;39.70
11597;DHT22;5854;48.072;16.286;2022-07-21T04:00:19;23.80;39.40
11597;DHT22;5854;48.072;16.286;2022-07-21T04:02:48;23.90;39.20
11597;DHT22;5854;48.072;16.286;2022-07-21T04:05:16;23.80;39.60
11597;DHT22;5854;48.072;16.286;2022-07-21T04:07:45;23.70;41.00
11597;DHT22;5854;48.072;16.286;2022-07-21T04:10:15;23.60;40.20
11597;DHT22;5854;48.072;16.286;2022-07-21T04:12:45;23.20;42.50
11597;DHT22;5854;48.072;16.286;2022-07-21T04:15:13;23.40;42.30
11597;DHT22;5854;48.072;16.286;2022-07-21T04:17:40;23.50;40.50
11597;DHT22;5854;48.072;16.286;2022-07-21T04:20:09;23.60;41.60
11597;DHT22;5854;48.072;16.286;2022-07-21T04:22:38;23.70;42.30
11597;DHT22;5854;48.072;16.286;2022-07-21T04:25:06;23.60;41.10
11597;DHT22;5854;48.072;16.286;2022-07-21T04:27:35;23.70;42.10
11597;DHT22;5854;48.072;16.286;2022-07-21T04:30:07;23.50;42.00
11597;DHT22;5854;48.072;16.286;2022-07-21T04:32:36;23.70;40.60
11597;DHT22;5854;48.072;16.286;2022-07-21T04:35:04;23.80;40.60
11597;DHT22;5854;48.072;16.286;2022-07-21T04:37:31;23.70;42.70
11597;DHT22;5854;48.072;16.286;2022-07-21T04:39:59;23.80;40.00
11597;DHT22;5854;48.072;16.286;2022-07-21T04:42:26;24.00;40.20
11597;DHT22;5854;48.072;16.286;2022-07-21T04:44:53;24.00;40.30
11597;DHT22;5854;48.072;16.286;2022-07-21T04:47:22;24.00;40.10
11597;DHT22;5854;48.072;16.286;2022-07-21T04:49:49;24.10;42.70
11597;DHT22;5854;48.072;16.286;2022-07-21T04:52:16;24.20;39.80
11597;DHT22;5854;48.072;16.286;2022-07-21T04:54:44;24.30;42.00
11597;DHT22;5854;48.072;16.286;2022-07-21T04:57:13;24.10;39.90
11597;DHT22;5854;48.072;16.286;2022-07-21T04:59:40;24.20;39.90
11597;DHT22;5854;48.072;16.286;2022-07-21T05:02:07;24.20;42.30
11597;DHT22;5854;48.072;16.286;2022-07-21T05:04:54;24.10;41.30
11597;DHT22;5854;48.072;16.286;2022-07-21T05:07:40;24.20;40.90
11597;DHT22;5854;48.072;16.286;2022-07-21T05:10:28;24.20;39.30
11597;DHT22;5854;48.072;16.286;2022-07-21T05:13:15;24.20;39.90
11597;DHT22;5854;48.072;16.286;2022-07-21T05:16:03;24.30;39.30
11597;DHT22;5854;48.072;16.286;2022-07-21T05:18:51;24.30;38.90
11597;DHT22;5854;48.072;16.286;2022-07-21T05:21:40;24.30;39.60
11597;DHT22;5854;48.072;16.286;2022-07-21T05:24:28;24.30;38.80
11597;DHT22;5854;48.072;16.286;2022-07-21T05:27:15;24.40;41.20
11597;DHT22;5854;48.072;16.286;2022-07-21T05:30:03;24.50;39.20
11597;DHT22;5854;48.072;16.286;2022-07-21T05:32:51;24.60;41.50
11597;DHT22;5854;48.072;16.286;2022-07-21T05:35:39;24.50;39.00
11597;DHT22;5854;48.072;16.286;2022-07-21T05:38:29;24.60;39.10
11597;DHT22;5854;48.072;16.286;2022-07-21T05:41:16;24.70;38.00
11597;DHT22;5854;48.072;16.286;2022-07-21T05:44:04;24.70;38.80
11597;DHT22;5854;48.072;16.286;2022-07-21T05:46:52;24.80;38.50
11597;DHT22;5854;48.072;16.286;2022-07-21T05:49:42;24.90;40.90
11597;DHT22;5854;48.072;16.286;2022-07-21T05:52:34;25.00;38.50
11597;DHT22;5854;48.072;16.286;2022-07-21T05:55:23;25.10;40.40
11597;DHT22;5854;48.072;16.286;2022-07-21T05:58:10;25.20;37.90
11597;DHT22;5854;48.072;16.286;2022-07-21T06:00:58;25.40;38.00
11597;DHT22;5854;48.072;16.286;2022-07-21T06:03:55;25.50;37.90
11597;DHT22;5854;48.072;16.286;2022-07-21T06:06:42;25.50;36.70
11597;DHT22;5854;48.072;16.286;2022-07-21T06:09:30;25.60;37.60
11597;DHT22;5854;48.072;16.286;2022-07-21T06:12:19;25.70;38.70
11597;DHT22;5854;48.072;16.286;2022-07-21T06:15:08;25.90;37.90
11597;DHT22;5854;48.072;16.286;2022-07-21T06:17:56;26.00;41.40
11597;DHT22;5854;48.072;16.286;2022-07-21T06:20:44;26.50;36.70
11597;DHT22;5854;48.072;16.286;2022-07-21T06:23:31;27.10;37.20
11597;DHT22;5854;48.072;16.286;2022-07-21T06:26:19;27.80;36.40
11597;DHT22;5854;48.072;16.286;2022-07-21T06:29:08;28.20;34.00
11597;DHT22;5854;48.072;16.286;2022-07-21T06:31:55;28.60;35.50
11597;DHT22;5854;48.072;16.286;2022-07-21T06:34:43;28.90;34.30
11597;DHT22;5854;48.072;16.286;2022-07-21T06:37:30;29.30;33.70
11597;DHT22;5854;48.072;16.286;2022-07-21T06:40:18;29.60;36.80
11597;DHT22;5854;48.072;16.286;2022-07-21T06:43:06;29.70;31.20
11597;DHT22;5854;48.072;16.286;2022-07-21T06:45:55;29.50;34.80
11597;DHT22;5854;48.072;16.286;2022-07-21T06:48:43;29.10;35.60
11597;DHT22;5854;48.072;16.286;2022-07-21T06:51:31;29.90;32.70
11597;DHT22;5854;48.072;16.286;2022-07-21T06:54:18;30.40;35.30
11597;DHT22;5854;48.072;16.286;2022-07-21T06:57:06;30.50;33.70
11597;DHT22;5854;48.072;16.286;2022-07-21T06:59:54;30.60;32.90
11597;DHT22;5854;48.072;16.286;2022-07-21T07:02:43;31.10;31.00
11597;DHT22;5854;48.072;16.286;2022-07-21T07:05:31;31.40;34.40
11597;DHT22;5854;48.072;16.286;2022-07-21T07:08:19;31.40;33.20
11597;DHT22;5854;48.072;16.286;2022-07-21T07:11:07;31.80;32.00
11597;DHT22;5854;48.072;16.286;2022-07-21T07:13:54;32.00;31.70
11597;DHT22;5854;48.072;16.286;2022-07-21T07:16:42;31.80;29.40
11597;DHT22;5854;48.072;16.286;2022-07-21T07:19:32;32.20;34.20
11597;DHT22;5854;48.072;16.286;2022-07-21T07:22:20;32.70;32.10
11597;DHT22;5854;48.072;16.286;2022-07-21T07:29:28;32.30;31.50
11597;DHT22;5854;48.072;16.286;2022-07-21T07:32:17;32.80;30.20
11597;DHT22;5854;48.072;16.286;2022-07-21T07:35:07;33.70;28.20
11597;DHT22;5854;48.072;16.286;2022-07-21T07:37:55;33.80;26.40
11597;DHT22;5854;48.072;16.286;2022-07-21T07:40:43;33.80;29.00
11597;DHT22;5854;48.072;16.286;2022-07-21T07:43:31;34.10;28.90
11597;DHT22;5854;48.072;16.286;2022-07-21T07:46:19;34.80;27.80
11597;DHT22;5854;48.072;16.286;2022-07-21T07:48:47;34.80;28.50
11597;DHT22;5854;48.072;16.286;2022-07-21T07:51:16;34.70;29.40
11597;DHT22;5854;48.072;16.286;2022-07-21T07:53:43;35.20;29.40
11597;DHT22;5854;48.072;16.286;2022-07-21T07:56:10;35.40;27.90
11597;DHT22;5854;48.072;16.286;2022-07-21T07:58:37;35.50;27.40
11597;DHT22;5854;48.072;16.286;2022-07-21T08:01:05;35.70;26.40
11597;DHT22;5854;48.072;16.286;2022-07-21T08:03:32;35.40;24.00
11597;DHT22;5854;48.072;16.286;2022-07-21T08:05:59;34.40;26.60
11597;DHT22;5854;48.072;16.286;2022-07-21T08:08:30;33.00;27.00
11597;DHT22;5854;48.072;16.286;2022-07-21T08:10:57;32.00;30.40
11597;DHT22;5854;48.072;16.286;2022-07-21T08:13:25;31.40;29.30
11597;DHT22;5854;48.072;16.286;2022-07-21T08:15:52;30.80;29.30
11597;DHT22;5854;48.072;16.286;2022-07-21T08:18:19;30.70;34.80
11597;DHT22;5854;48.072;16.286;2022-07-21T08:20:47;30.90;31.00
11597;DHT22;5854;48.072;16.286;2022-07-21T08:23:15;30.50;31.60
11597;DHT22;5854;48.072;16.286;2022-07-21T08:25:44;30.30;31.10
11597;DHT22;5854;48.072;16.286;2022-07-21T08:28:11;30.40;31.60
11597;DHT22;5854;48.072;16.286;2022-07-21T08:30:39;30.30;31.00
11597;DHT22;5854;48.072;16.286;2022-07-21T08:33:08;30.30;33.00
11597;DHT22;5854;48.072;16.286;2022-07-21T08:35:36;30.70;31.30
11597;DHT22;5854;48.072;16.286;2022-07-21T08:38:04;31.00;31.30
11597;DHT22;5854;48.072;16.286;2022-07-21T08:40:34;31.00;30.30
11597;DHT22;5854;48.072;16.286;2022-07-21T08:43:05;30.20;31.30
11597;DHT22;5854;48.072;16.286;2022-07-21T08:45:34;30.50;33.70
11597;DHT22;5854;48.072;16.286;2022-07-21T08:48:02;30.80;33.60
11597;DHT22;5854;48.072;16.286;2022-07-21T08:50:31;31.00;31.80
11597;DHT22;5854;48.072;16.286;2022-07-21T08:53:01;30.80;31.40
11597;DHT22;5854;48.072;16.286;2022-07-21T08:55:29;30.70;32.60
11597;DHT22;5854;48.072;16.286;2022-07-21T08:57:57;31.20;31.60
11597;DHT22;5854;48.072;16.286;2022-07-21T09:00:26;31.20;31.50
11597;DHT22;5854;48.072;16.286;2022-07-21T09:03:08;31.50;30.10
11597;DHT22;5854;48.072;16.286;2022-07-21T09:05:37;31.40;30.40
11597;DHT22;5854;48.072;16.286;2022-07-21T09:08:04;31.60;30.40
11597;DHT22;5854;48.072;16.286;2022-07-21T09:10:32;31.60;31.60
11597;DHT22;5854;48.072;16.286;2022-07-21T09:13:01;31.70;31.80
11597;DHT22;5854;48.072;16.286;2022-07-21T09:15:32;31.70;32.40
11597;DHT22;5854;48.072;16.286;2022-07-21T09:18:06;31.60;32.60
11597;DHT22;5854;48.072;16.286;2022-07-21T09:20:36;31.40;33.10
11597;DHT22;5854;48.072;16.286;2022-07-21T09:23:07;31.40;32.60
11597;DHT22;5854;48.072;16.286;2022-07-21T09:25:38;31.40;32.50
11597;DHT22;5854;48.072;16.286;2022-07-21T09:28:08;31.40;34.10
11597;DHT22;5854;48.072;16.286;2022-07-21T09:30:56;31.60;32.00
11597;DHT22;5854;48.072;16.286;2022-07-21T09:33:28;31.90;31.30
11597;DHT22;5854;48.072;16.286;2022-07-21T09:36:00;32.10;32.10
11597;DHT22;5854;48.072;16.286;2022-07-21T09:38:31;32.10;31.70
11597;DHT22;5854;48.072;16.286;2022-07-21T09:41:08;32.20;31.50
11597;DHT22;5854;48.072;16.286;2022-07-21T09:43:40;32.30;31.20
11597;DHT22;5854;48.072;16.286;2022-07-21T09:46:12;32.50;31.70
11597;DHT22;5854;48.072;16.286;2022-07-21T09:48:44;32.30;33.00
11597;DHT22;5854;48.072;16.286;2022-07-21T09:51:23;32.50;30.80
11597;DHT22;5854;48.072;16.286;2022-07-21T09:53:54;32.50;31.10
11597;DHT22;5854;48.072;16.286;2022-07-21T09:56:23;32.60;30.60
11597;DHT22;5854;48.072;16.286;2022-07-21T09:58:54;32.10;31.20
11597;DHT22;5854;48.072;16.286;2022-07-21T10:01:23;32.30;31.50
11597;DHT22;5854;48.072;16.286;2022-07-21T10:03:52;32.70;31.90
11597;DHT22;5854;48.072;16.286;2022-07-21T10:06:23;32.70;30.60
11597;DHT22;5854;48.072;16.286;2022-07-21T10:08:52;32.30;31.00
11597;DHT22;5854;48.072;16.286;2022-07-21T10:11:19;32.40;31.10
11597;DHT22;5854;48.072;16.286;2022-07-21T10:13:46;32.30;30.90
11597;DHT22;5854;48.072;16.286;2022-07-21T10:16:15;32.30;30.80
11597;DHT22;5854;48.072;16.286;2022-07-21T10:18:54;32.40;31.80
11597;DHT22;5854;48.072;16.286;2022-07-21T10:21:42;32.60;31.80
11597;DHT22;5854;48.072;16.286;2022-07-21T10:24:13;32.60;30.60
11597;DHT22;5854;48.072;16.286;2022-07-21T10:26:59;32.70;30.90
11597;DHT22;5854;48.072;16.286;2022-07-21T10:29:56;32.80;30.80
11597;DHT22;5854;48.072;16.286;2022-07-21T10:32:29;33.00;31.50
11597;DHT22;5854;48.072;16.286;2022-07-21T10:35:00;33.00;30.90
11597;DHT22;5854;48.072;16.286;2022-07-21T10:37:46;33.00;31.60
11597;DHT22;5854;48.072;16.286;2022-07-21T10:40:36;33.00;30.90
11597;DHT22;5854;48.072;16.286;2022-07-21T10:43:38;32.90;30.20
11597;DHT22;5854;48.072;16.286;2022-07-21T10:46:31;32.90;29.90
11597;DHT22;5854;48.072;16.286;2022-07-21T10:49:04;32.90;29.90
11597;DHT22;5854;48.072;16.286;2022-07-21T10:51:34;32.80;30.20
11597;DHT22;5854;48.072;16.286;2022-07-21T10:57:28;32.70;30.60
11597;DHT22;5854;48.072;16.286;2022-07-21T11:00:24;32.90;30.30
11597;DHT22;5854;48.072;16.286;2022-07-21T11:02:55;32.80;30.50
11597;DHT22;5854;48.072;16.286;2022-07-21T11:05:24;33.00;30.80
11597;DHT22;5854;48.072;16.286;2022-07-21T11:10:48;33.10;30.60
11597;DHT22;5854;48.072;16.286;2022-07-21T11:13:17;33.00;30.90
11597;DHT22;5854;48.072;16.286;2022-07-21T11:15:53;33.00;31.90
11597;DHT22;5854;48.072;16.286;2022-07-21T11:18:26;33.10;30.50
11597;DHT22;5854;48.072;16.286;2022-07-21T11:21:10;33.20;30.60
11597;DHT22;5854;48.072;16.286;2022-07-21T11:23:42;33.20;30.30
11597;DHT22;5854;48.072;16.286;2022-07-21T11:26:13;33.10;30.50
11597;DHT22;5854;48.072;16.286;2022-07-21T11:28:42;33.00;31.00
11597;DHT22;5854;48.072;16.286;2022-07-21T11:31:15;33.10;30.60
11597;DHT22;5854;48.072;16.286;2022-07-21T11:33:47;33.10;30.80
11597;DHT22;5854;48.072;16.286;2022-07-21T11:36:28;33.20;31.70
11597;DHT22;5854;48.072;16.286;2022-07-21T11:39:00;33.30;31.00
11597;DHT22;5854;48.072;16.286;2022-07-21T11:41:29;33.30;31.50
11597;DHT22;5854;48.072;16.286;2022-07-21T11:43:57;33.40;31.40
11597;DHT22;5854;48.072;16.286;2022-07-21T11:46:44;33.40;31.50
11597;DHT22;5854;48.072;16.286;2022-07-21T11:49:42;33.50;31.10
11597;DHT22;5854;48.072;16.286;2022-07-21T11:52:12;33.40;31.40
11597;DHT22;5854;48.072;16.286;2022-07-21T11:54:47;33.50;31.30
11597;DHT22;5854;48.072;16.286;2022-07-21T11:57:18;33.70;31.00
11597;DHT22;5854;48.072;16.286;2022-07-21T11:59:47;33.70;30.90
11597;DHT22;5854;48.072;16.286;2022-07-21T12:02:17;33.70;30.30
11597;DHT22;5854;48.072;16.286;2022-07-21T12:04:47;33.80;30.60
11597;DHT22;5854;48.072;16.286;2022-07-21T12:07:19;33.90;30.30
11597;DHT22;5854;48.072;16.286;2022-07-21T12:12:37;35.30;28.70
11597;DHT22;5854;48.072;16.286;2022-07-21T12:15:24;36.20;27.90
11597;DHT22;5854;48.072;16.286;2022-07-21T12:17:55;37.10;26.90
11597;DHT22;5854;48.072;16.286;2022-07-21T12:20:27;37.40;26.20
11597;DHT22;5854;48.072;16.286;2022-07-21T12:23:01;37.30;26.40
11597;DHT22;5854;48.072;16.286;2022-07-21T12:25:34;37.40;26.00
11597;DHT22;5854;48.072;16.286;2022-07-21T12:30:53;37.50;26.00
11597;DHT22;5854;48.072;16.286;2022-07-21T12:33:27;37.10;26.70
11597;DHT22;5854;48.072;16.286;2022-07-21T12:38:36;36.20;27.80
11597;DHT22;5854;48.072;16.286;2022-07-21T12:41:10;36.70;26.90
11597;DHT22;5854;48.072;16.286;2022-07-21T12:43:40;37.30;26.10
11597;DHT22;5854;48.072;16.286;2022-07-21T12:46:10;37.00;26.10
11597;DHT22;5854;48.072;16.286;2022-07-21T12:48:42;35.50;27.80
11597;DHT22;5854;48.072;16.286;2022-07-21T12:51:12;34.90;28.30
11597;DHT22;5854;48.072;16.286;2022-07-21T12:53:43;35.70;28.10
11597;DHT22;5854;48.072;16.286;2022-07-21T12:56:13;36.40;27.40
11597;DHT22;5854;48.072;16.286;2022-07-21T12:58:43;36.50;27.80
11597;DHT22;5854;48.072;16.286;2022-07-21T13:01:11;36.50;26.40
11597;DHT22;5854;48.072;16.286;2022-07-21T13:03:39;35.50;27.20
11597;DHT22;5854;48.072;16.286;2022-07-21T13:06:07;34.60;29.00
11597;DHT22;5854;48.072;16.286;2022-07-21T13:08:36;34.40;29.10
11597;DHT22;5854;48.072;16.286;2022-07-21T13:11:04;34.00;29.80
11597;DHT22;5854;48.072;16.286;2022-07-21T13:13:33;34.70;29.00
11597;DHT22;5854;48.072;16.286;2022-07-21T13:16:02;35.30;28.70
11597;DHT22;5854;48.072;16.286;2022-07-21T13:18:29;35.70;27.30
11597;DHT22;5854;48.072;16.286;2022-07-21T13:20:56;36.50;27.10
11597;DHT22;5854;48.072;16.286;2022-07-21T13:23:24;36.30;26.90
11597;DHT22;5854;48.072;16.286;2022-07-21T13:25:51;36.60;26.60
11597;DHT22;5854;48.072;16.286;2022-07-21T13:28:19;36.70;26.40
11597;DHT22;5854;48.072;16.286;2022-07-21T13:30:46;36.60;26.90
11597;DHT22;5854;48.072;16.286;2022-07-21T13:33:15;36.50;26.60
11597;DHT22;5854;48.072;16.286;2022-07-21T13:35:46;36.30;27.10
11597;DHT22;5854;48.072;16.286;2022-07-21T13:38:14;36.10;27.40
11597;DHT22;5854;48.072;16.286;2022-07-21T13:40:47;35.90;27.60
11597;DHT22;5854;48.072;16.286;2022-07-21T13:43:41;35.70;27.70
11597;DHT22;5854;48.072;16.286;2022-07-21T13:46:09;35.50;27.80
11597;DHT22;5854;48.072;16.286;2022-07-21T13:48:48;35.30;28.00
11597;DHT22;5854;48.072;16.286;2022-07-21T13:51:34;34.90;28.10
11597;DHT22;5854;48.072;16.286;2022-07-21T13:54:05;34.90;28.50
11597;DHT22;5854;48.072;16.286;2022-07-21T13:56:33;35.00;28.70
11597;DHT22;5854;48.072;16.286;2022-07-21T13:59:02;35.10;28.90
11597;DHT22;5854;48.072;16.286;2022-07-21T14:01:29;35.20;28.80
11597;DHT22;5854;48.072;16.286;2022-07-21T14:03:58;35.20;28.70
11597;DHT22;5854;48.072;16.286;2022-07-21T14:06:25;35.20;28.30
11597;DHT22;5854;48.072;16.286;2022-07-21T14:08:52;35.20;28.40
11597;DHT22;5854;48.072;16.286;2022-07-21T14:11:19;35.20;28.30
11597;DHT22;5854;48.072;16.286;2022-07-21T14:13:49;35.20;28.30
11597;DHT22;5854;48.072;16.286;2022-07-21T14:16:16;35.30;28.00
11597;DHT22;5854;48.072;16.286;2022-07-21T14:18:43;35.30;28.50
11597;DHT22;5854;48.072;16.286;2022-07-21T14:21:12;35.30;28.00
11597;DHT22;5854;48.072;16.286;2022-07-21T14:23:39;35.20;27.90
11597;DHT22;5854;48.072;16.286;2022-07-21T14:26:07;35.10;28.30
11597;DHT22;5854;48.072;16.286;2022-07-21T14:28:34;35.10;28.50
11597;DHT22;5854;48.072;16.286;2022-07-21T14:31:01;35.10;28.40
11597;DHT22;5854;48.072;16.286;2022-07-21T14:33:28;35.00;28.60
11597;DHT22;5854;48.072;16.286;2022-07-21T14:35:57;35.10;28.60
11597;DHT22;5854;48.072;16.286;2022-07-21T14:38:25;35.10;28.10
11597;DHT22;5854;48.072;16.286;2022-07-21T14:40:52;34.90;28.00
11597;DHT22;5854;48.072;16.286;2022-07-21T14:43:19;35.00;28.50
11597;DHT22;5854;48.072;16.286;2022-07-21T14:45:46;35.10;28.90
11597;DHT22;5854;48.072;16.286;2022-07-21T14:48:13;35.30;28.70
11597;DHT22;5854;48.072;16.286;2022-07-21T14:50:41;35.40;28.30
11597;DHT22;5854;48.072;16.286;2022-07-21T14:53:08;35.50;28.30
11597;DHT22;5854;48.072;16.286;2022-07-21T14:55:37;35.40;28.40
11597;DHT22;5854;48.072;16.286;2022-07-21T14:58:04;35.50;28.50
11597;DHT22;5854;48.072;16.286;2022-07-21T15:00:31;35.40;28.40
11597;DHT22;5854;48.072;16.286;2022-07-21T15:02:58;35.50;28.40
11597;DHT22;5854;48.072;16.286;2022-07-21T15:05:26;35.50;28.00
11597;DHT22;5854;48.072;16.286;2022-07-21T15:07:53;35.50;28.00
11597;DHT22;5854;48.072;16.286;2022-07-21T15:10:20;35.60;27.70
11597;DHT22;5854;48.072;16.286;2022-07-21T15:12:49;35.60;27.10
11597;DHT22;5854;48.072;16.286;2022-07-21T15:15:16;35.70;27.40
11597;DHT22;5854;48.072;16.286;2022-07-21T15:17:43;35.70;27.20
11597;DHT22;5854;48.072;16.286;2022-07-21T15:20:12;35.80;27.20
11597;DHT22;5854;48.072;16.286;2022-07-21T15:22:40;35.80;27.60
11597;DHT22;5854;48.072;16.286;2022-07-21T15:25:08;35.70;27.60
11597;DHT22;5854;48.072;16.286;2022-07-21T15:27:37;35.70;28.00
11597;DHT22;5854;48.072;16.286;2022-07-21T15:30:09;35.70;28.10
11597;DHT22;5854;48.072;16.286;2022-07-21T15:32:38;35.60;27.80
11597;DHT22;5854;48.072;16.286;2022-07-21T15:35:07;35.50;28.20
11597;DHT22;5854;48.072;16.286;2022-07-21T15:37:35;35.40;28.50
11597;DHT22;5854;48.072;16.286;2022-07-21T15:40:03;35.40;29.00
11597;DHT22;5854;48.072;16.286;2022-07-21T15:42:30;35.30;29.20
11597;DHT22;5854;48.072;16.286;2022-07-21T15:45:00;35.50;28.70
11597;DHT22;5854;48.072;16.286;2022-07-21T15:47:28;35.60;28.10
11597;DHT22;5854;48.072;16.286;2022-07-21T15:49:55;35.50;28.00
11597;DHT22;5854;48.072;16.286;2022-07-21T15:52:22;35.40;28.30
11597;DHT22;5854;48.072;16.286;2022-07-21T15:54:49;35.20;28.70
11597;DHT22;5854;48.072;16.286;2022-07-21T15:57:16;35.10;29.20
11597;DHT22;5854;48.072;16.286;2022-07-21T15:59:43;35.20;28.90
11597;DHT22;5854;48.072;16.286;2022-07-21T16:02:12;35.10;28.50
11597;DHT22;5854;48.072;16.286;2022-07-21T16:04:43;35.00;28.80
11597;DHT22;5854;48.072;16.286;2022-07-21T16:07:12;35.00;29.00
11597;DHT22;5854;48.072;16.286;2022-07-21T16:09:40;35.00;29.00
11597;DHT22;5854;48.072;16.286;2022-07-21T16:12:10;35.00;29.20
11597;DHT22;5854;48.072;16.286;2022-07-21T16:14:38;35.10;29.20
11597;DHT22;5854;48.072;16.286;2022-07-21T16:17:05;35.00;29.20
11597;DHT22;5854;48.072;16.286;2022-07-21T16:19:32;34.70;29.50
11597;DHT22;5854;48.072;16.286;2022-07-21T16:22:01;34.70;29.70